Tarleton, United Kingdom
Current Conditions -  °F | °C
As of 11:50 PM on Monday 20 Oct 2014 (Local Time) from EGGP Reporting Station
Rain Showers Rain Showers  
Wind Chill: 55°   Ceiling: Unl
Heat Index: 55°   Visibility: 6mi
Dew Point: 52°   Wind: 9mph
Humidity: 88%   Direction: 170°S
Pressure: 29.65"   Gusts: NA
Location:  53.68°N, 2.83°W
Report Text: EGGP 202250Z 17008KT 140V200 9999 -SHRA FEW025 SCT030 13/11 Q1004
Loading
Personal Weather Stations






























Interactive Weather Map New forecast layout! Learn more

10-Day Weather Forecast

Advertisements
Track Severe Weather on mobile